createdAt,value
2023-03-27T00:01:38.482Z,0.40
2023-03-27T00:04:46.646Z,0.98
2023-03-27T00:07:56.030Z,0.80
2023-03-27T00:11:04.339Z,0.90
2023-03-27T00:14:13.960Z,0.90
2023-03-27T00:17:22.211Z,0.80
2023-03-27T00:20:30.419Z,0.70
2023-03-27T00:23:38.249Z,0.68
2023-03-27T00:26:46.415Z,1.02
2023-03-27T00:29:56.076Z,0.75
2023-03-27T00:33:03.912Z,0.70
2023-03-27T00:36:12.228Z,1.00
2023-03-27T00:39:20.860Z,0.55
2023-03-27T00:42:29.684Z,0.70
2023-03-27T00:45:38.902Z,0.90
2023-03-27T00:48:48.546Z,0.80
2023-03-27T00:51:58.235Z,0.80
2023-03-27T00:55:09.714Z,0.60
2023-03-27T00:58:18.770Z,0.77
2023-03-27T01:01:30.158Z,0.90
2023-03-27T01:04:38.528Z,0.70
2023-03-27T01:08:01.283Z,0.63
2023-03-27T01:14:23.514Z,0.77
2023-03-27T01:17:41.043Z,0.73
2023-03-27T01:21:00.237Z,0.70
2023-03-27T01:24:46.329Z,0.80
2023-03-27T01:28:14.135Z,0.70
2023-03-27T01:31:32.011Z,0.70
2023-03-27T01:35:01.629Z,0.70
2023-03-27T01:38:37.802Z,0.50
2023-03-27T01:41:50.418Z,0.52
2023-03-27T01:45:02.428Z,0.80
2023-03-27T01:48:12.469Z,0.70
2023-03-27T01:51:22.278Z,0.70
2023-03-27T01:54:30.858Z,0.60
2023-03-27T01:57:49.971Z,0.80
2023-03-27T02:01:01.280Z,0.50
2023-03-27T02:04:12.805Z,0.95
2023-03-27T02:07:22.946Z,0.73
2023-03-27T02:10:33.123Z,0.70
2023-03-27T02:13:52.589Z,0.88
2023-03-27T02:17:03.469Z,0.88
2023-03-27T02:20:16.061Z,0.77
2023-03-27T02:23:23.902Z,0.70
2023-03-27T02:26:32.433Z,0.70
2023-03-27T02:29:51.619Z,0.63
2023-03-27T02:33:02.487Z,0.90
2023-03-27T02:36:16.489Z,0.88
2023-03-27T02:39:29.403Z,0.70
2023-03-27T02:42:41.363Z,0.60
2023-03-27T02:45:53.364Z,0.73
2023-03-27T02:49:03.543Z,0.68
2023-03-27T02:52:12.680Z,0.73
2023-03-27T02:55:24.917Z,0.70
2023-03-27T02:58:35.505Z,0.70
2023-03-27T03:01:52.865Z,0.63
2023-03-27T03:08:21.745Z,0.68
2023-03-27T03:11:30.066Z,0.77
2023-03-27T03:14:39.148Z,0.70
2023-03-27T03:17:48.738Z,0.70
2023-03-27T03:20:56.696Z,0.75
2023-03-27T03:24:04.986Z,0.77
2023-03-27T03:27:14.288Z,0.90
2023-03-27T03:30:38.935Z,0.80
2023-03-27T03:33:52.560Z,0.70
2023-03-27T03:37:00.787Z,0.73
2023-03-27T03:40:12.637Z,0.70
2023-03-27T03:43:26.364Z,0.70
2023-03-27T03:46:35.857Z,0.80
2023-03-27T03:49:44.987Z,0.82
2023-03-27T03:52:53.543Z,1.02
2023-03-27T03:56:01.829Z,0.77
2023-03-27T03:59:11.710Z,0.80
2023-03-27T04:02:41.208Z,1.00
2023-03-27T04:05:54.136Z,0.80
2023-03-27T04:09:01.966Z,1.02
2023-03-27T04:12:38.882Z,0.70
2023-03-27T04:15:52.788Z,0.70
2023-03-27T04:19:07.288Z,0.70
2023-03-27T04:22:22.824Z,0.88
2023-03-27T04:25:32.103Z,0.98
2023-03-27T04:28:41.184Z,0.80
2023-03-27T04:32:09.461Z,1.02
2023-03-27T04:35:20.491Z,0.90
2023-03-27T04:38:37.001Z,0.70
2023-03-27T04:41:49.250Z,0.70
2023-03-27T04:44:57.757Z,0.82
2023-03-27T04:48:06.532Z,0.77
2023-03-27T04:51:15.924Z,0.90
2023-03-27T04:54:26.683Z,0.80
2023-03-27T04:57:34.524Z,0.90
2023-03-27T05:00:43.825Z,0.77
2023-03-27T05:04:11.818Z,0.80
2023-03-27T05:07:33.211Z,0.90
2023-03-27T05:10:46.433Z,0.65
2023-03-27T05:13:54.612Z,0.82
2023-03-27T05:17:05.483Z,0.98
2023-03-27T05:20:14.940Z,0.70
2023-03-27T05:23:23.706Z,0.73
2023-03-27T05:26:34.137Z,0.70
2023-03-27T05:29:47.708Z,0.70
2023-03-27T05:32:59.237Z,0.60
2023-03-27T05:36:11.358Z,0.63
2023-03-27T05:39:25.436Z,0.73
2023-03-27T05:42:34.860Z,0.90
2023-03-27T05:45:43.009Z,0.88
2023-03-27T05:48:51.239Z,0.80
2023-03-27T05:51:59.727Z,1.02
2023-03-27T05:55:09.104Z,0.90
2023-03-27T05:58:21.037Z,0.80
2023-03-27T06:01:29.056Z,0.90
2023-03-27T06:04:39.958Z,0.60
2023-03-27T06:07:52.038Z,0.80
2023-03-27T06:10:59.844Z,0.68
2023-03-27T06:14:16.978Z,0.88
2023-03-27T06:17:44.494Z,1.00
2023-03-27T06:20:52.733Z,0.80
2023-03-27T06:24:00.788Z,0.70
2023-03-27T06:27:10.772Z,0.73
2023-03-27T06:30:21.574Z,1.05
2023-03-27T06:33:49.310Z,0.80
2023-03-27T06:37:25.048Z,0.93
2023-03-27T06:40:35.495Z,1.00
2023-03-27T06:43:43.603Z,0.77
2023-03-27T06:47:05.206Z,1.00
2023-03-27T06:50:18.558Z,0.80
2023-03-27T06:53:28.371Z,0.85
2023-03-27T06:56:37.043Z,0.85
2023-03-27T07:00:01.620Z,0.68
2023-03-27T07:03:31.465Z,0.88
2023-03-27T07:07:17.494Z,0.88
2023-03-27T07:10:26.191Z,1.08
2023-03-27T07:13:35.895Z,0.95
2023-03-27T07:16:46.712Z,0.82
2023-03-27T07:19:57.084Z,0.80
2023-03-27T07:23:07.764Z,0.90
2023-03-27T07:26:34.208Z,0.80
2023-03-27T07:29:54.487Z,0.80
2023-03-27T07:33:03.699Z,0.50
2023-03-27T07:36:16.127Z,0.80
2023-03-27T07:39:46.149Z,0.82
2023-03-27T07:42:55.687Z,0.80
2023-03-27T07:46:03.752Z,1.08
2023-03-27T07:49:12.124Z,0.65
2023-03-27T07:52:21.694Z,0.70
2023-03-27T07:55:37.868Z,0.63
2023-03-27T07:58:48.912Z,0.70
2023-03-27T08:02:01.473Z,1.00
2023-03-27T08:05:11.188Z,0.80
2023-03-27T08:08:21.045Z,0.80
2023-03-27T08:11:37.485Z,0.63
2023-03-27T08:14:48.270Z,1.02
2023-03-27T08:18:02.852Z,0.90
2023-03-27T08:21:12.582Z,0.95
2023-03-27T08:24:22.445Z,0.95
2023-03-27T08:27:46.647Z,0.68
2023-03-27T08:31:02.497Z,0.90
2023-03-27T08:34:15.731Z,1.08
2023-03-27T08:37:30.679Z,0.88
2023-03-27T08:41:03.767Z,0.95
2023-03-27T08:44:20.881Z,0.65
2023-03-27T08:47:31.850Z,0.75
2023-03-27T08:50:47.553Z,0.75
2023-03-27T08:54:00.014Z,1.05
2023-03-27T08:57:18.257Z,1.20
2023-03-27T09:00:31.840Z,0.80
2023-03-27T09:04:01.641Z,0.93
2023-03-27T09:07:17.103Z,0.90
2023-03-27T09:10:46.410Z,0.80
2023-03-27T09:14:25.971Z,0.75
2023-03-27T09:17:37.404Z,0.93
2023-03-27T09:20:52.033Z,0.90
2023-03-27T09:24:02.528Z,0.93
2023-03-27T09:27:42.439Z,1.13
2023-03-27T09:31:22.808Z,1.15
2023-03-27T09:34:32.179Z,0.85
2023-03-27T09:37:42.633Z,0.80
2023-03-27T09:40:53.469Z,1.00
2023-03-27T09:44:07.387Z,0.90
2023-03-27T09:47:23.105Z,0.95
2023-03-27T09:50:32.679Z,1.55
2023-03-27T09:53:58.438Z,0.75
2023-03-27T09:57:12.512Z,0.80
2023-03-27T10:00:28.226Z,1.27
2023-03-27T10:03:44.086Z,0.98
2023-03-27T10:06:59.865Z,0.98
2023-03-27T10:10:21.038Z,0.75
2023-03-27T10:13:45.832Z,0.98
2023-03-27T10:16:56.726Z,0.93
2023-03-27T10:20:10.499Z,0.80
2023-03-27T10:23:24.618Z,0.73
2023-03-27T10:26:33.712Z,0.73
2023-03-27T10:29:41.671Z,0.70
2023-03-27T10:32:54.746Z,0.90
2023-03-27T10:36:17.256Z,0.63
2023-03-27T10:39:27.829Z,0.70
2023-03-27T10:42:57.276Z,0.88
2023-03-27T10:46:06.463Z,0.90
2023-03-27T10:49:22.059Z,0.77
2023-03-27T10:52:34.977Z,0.80
2023-03-27T10:55:54.425Z,1.02
2023-03-27T10:59:04.333Z,0.80
2023-03-27T11:02:17.479Z,0.80
2023-03-27T11:05:29.012Z,0.82
2023-03-27T11:08:44.485Z,0.90
2023-03-27T11:11:54.870Z,0.95
2023-03-27T11:15:07.312Z,0.80
2023-03-27T11:18:17.930Z,1.08
2023-03-27T11:21:33.325Z,0.80
2023-03-27T11:24:48.304Z,0.70
2023-03-27T11:28:01.344Z,0.95
2023-03-27T11:31:14.433Z,0.98
2023-03-27T11:34:29.785Z,0.88
2023-03-27T11:37:55.506Z,0.60
2023-03-27T11:41:14.638Z,0.88
2023-03-27T11:44:24.342Z,0.98
2023-03-27T11:48:19.774Z,1.30
2023-03-27T11:51:37.907Z,0.80
2023-03-27T11:55:06.477Z,0.80
2023-03-27T11:58:26.683Z,0.70
2023-03-27T12:01:36.431Z,1.10
2023-03-27T12:04:48.553Z,0.82
2023-03-27T12:08:09.100Z,0.52
2023-03-27T12:11:18.056Z,0.88
2023-03-27T12:14:41.471Z,0.85
2023-03-27T12:17:58.213Z,0.80
2023-03-27T12:21:13.563Z,0.77
2023-03-27T12:24:29.776Z,0.80
2023-03-27T12:28:22.702Z,1.20
2023-03-27T12:31:57.944Z,1.20
2023-03-27T12:35:06.525Z,0.90
2023-03-27T12:38:29.576Z,0.95
2023-03-27T12:41:41.857Z,0.90
2023-03-27T12:45:16.746Z,1.30
2023-03-27T12:48:51.630Z,0.87
2023-03-27T12:55:40.396Z,0.90
2023-03-27T12:58:52.837Z,1.10
2023-03-27T13:02:36.851Z,1.33
2023-03-27T13:06:12.715Z,1.25
2023-03-27T13:09:37.373Z,1.10
2023-03-27T13:13:20.821Z,1.10
2023-03-27T13:16:39.805Z,1.00
2023-03-27T13:19:54.425Z,0.70
2023-03-27T13:23:32.894Z,1.02
2023-03-27T13:26:48.538Z,0.88
2023-03-27T13:29:57.164Z,0.98
2023-03-27T13:33:16.157Z,0.60
2023-03-27T13:36:24.804Z,0.80
2023-03-27T13:39:41.760Z,0.82
2023-03-27T13:42:52.288Z,2.15
2023-03-27T13:46:01.943Z,1.00
2023-03-27T13:49:32.786Z,1.17
2023-03-27T13:53:09.606Z,0.93
2023-03-27T13:56:39.227Z,1.00
2023-03-27T14:00:55.520Z,0.90
2023-03-27T14:04:32.032Z,0.70
2023-03-27T14:08:01.813Z,0.88
2023-03-27T14:11:40.797Z,0.60
2023-03-27T14:15:03.663Z,1.20
2023-03-27T14:18:39.724Z,1.30
2023-03-27T14:21:53.419Z,0.93
2023-03-27T14:25:04.555Z,0.95
2023-03-27T14:28:31.534Z,0.77
2023-03-27T14:31:44.394Z,1.02
2023-03-27T14:35:27.528Z,0.70
2023-03-27T14:38:43.583Z,0.73
2023-03-27T14:41:54.319Z,1.10
2023-03-27T14:45:11.473Z,0.82
2023-03-27T14:48:22.055Z,0.95
2023-03-27T14:51:35.073Z,0.77
2023-03-27T14:54:54.669Z,1.27
2023-03-27T14:58:11.144Z,1.02
2023-03-27T15:01:22.087Z,0.88
2023-03-27T15:04:34.765Z,0.60
2023-03-27T15:07:49.303Z,1.08
2023-03-27T15:11:21.217Z,0.93
2023-03-27T15:14:35.202Z,1.00
2023-03-27T15:17:46.158Z,0.90
2023-03-27T15:20:55.041Z,1.00
2023-03-27T15:24:06.572Z,1.80
2023-03-27T15:27:17.328Z,2.80
2023-03-27T15:30:26.961Z,2.70
2023-03-27T15:33:38.118Z,2.08
2023-03-27T15:36:46.699Z,1.98
2023-03-27T15:40:07.046Z,1.73
2023-03-27T15:43:22.249Z,1.55
2023-03-27T15:46:34.709Z,1.23
2023-03-27T15:49:44.334Z,1.37
2023-03-27T15:52:52.627Z,1.30
2023-03-27T15:56:01.244Z,1.10
2023-03-27T15:59:10.464Z,1.10
2023-03-27T16:02:18.699Z,1.23
2023-03-27T16:05:27.851Z,0.95
2023-03-27T16:08:36.567Z,1.90
2023-03-27T16:11:45.767Z,1.15
2023-03-27T16:14:54.808Z,1.10
2023-03-27T16:18:03.966Z,1.27
2023-03-27T16:21:13.924Z,1.50
2023-03-27T16:24:21.810Z,1.00
2023-03-27T16:27:32.926Z,0.80
2023-03-27T16:30:41.960Z,1.05
2023-03-27T16:33:49.915Z,0.80
2023-03-27T16:36:59.719Z,0.45
2023-03-27T16:40:08.681Z,0.98
2023-03-27T16:43:16.624Z,0.60
2023-03-27T16:46:25.415Z,1.02
2023-03-27T16:49:33.343Z,1.13
2023-03-27T16:52:42.698Z,0.63
2023-03-27T16:55:51.184Z,0.68
2023-03-27T16:58:59.632Z,0.52
2023-03-27T17:02:07.450Z,0.65
2023-03-27T17:05:15.644Z,0.70
2023-03-27T17:08:25.113Z,0.82
2023-03-27T17:11:33.218Z,0.75
2023-03-27T17:14:41.136Z,0.70
2023-03-27T17:17:50.024Z,0.65
2023-03-27T17:20:58.325Z,0.60
2023-03-27T17:24:09.078Z,0.98
2023-03-27T17:27:18.669Z,0.77
2023-03-27T17:30:38.095Z,0.80
2023-03-27T17:33:49.610Z,0.90
2023-03-27T17:36:57.605Z,0.60
2023-03-27T17:40:09.563Z,0.68
2023-03-27T17:43:17.613Z,0.60
2023-03-27T17:46:25.522Z,0.63
2023-03-27T17:49:34.445Z,0.70
2023-03-27T17:52:42.401Z,1.00
2023-03-27T17:55:53.165Z,0.55
2023-03-27T17:59:01.026Z,0.68
2023-03-27T18:02:09.221Z,0.70
2023-03-27T18:05:17.133Z,0.77
2023-03-27T18:08:25.124Z,0.75
2023-03-27T18:11:34.713Z,0.77
2023-03-27T18:14:43.123Z,1.25
2023-03-27T18:17:51.326Z,0.73
2023-03-27T18:20:59.319Z,1.02
2023-03-27T18:24:08.062Z,0.93
2023-03-27T18:27:17.682Z,1.70
2023-03-27T18:30:13.380Z,3.05
2023-03-27T18:33:21.342Z,1.88
2023-03-27T18:36:29.533Z,3.50
2023-03-27T18:39:37.732Z,1.80
2023-03-27T18:42:46.089Z,1.30
2023-03-27T18:45:59.032Z,1.20
2023-03-27T18:49:17.513Z,1.30
2023-03-27T18:52:29.690Z,1.50
2023-03-27T18:55:37.546Z,1.30
2023-03-27T18:58:45.624Z,1.13
2023-03-27T19:01:55.220Z,1.13
2023-03-27T19:05:03.641Z,1.45
2023-03-27T19:08:11.855Z,1.23
2023-03-27T19:11:19.881Z,1.05
2023-03-27T19:14:46.334Z,2.33
2023-03-27T19:18:30.024Z,1.30
2023-03-27T19:21:56.730Z,1.42
2023-03-27T19:25:24.852Z,1.00
2023-03-27T19:28:32.860Z,1.25
2023-03-27T19:31:40.971Z,1.10
2023-03-27T19:34:50.481Z,1.10
2023-03-27T19:37:58.507Z,3.05
2023-03-27T19:41:09.218Z,1.05
2023-03-27T19:44:19.791Z,1.63
2023-03-27T19:47:27.859Z,1.88
2023-03-27T19:50:38.717Z,1.25
2023-03-27T19:53:55.938Z,1.80
2023-03-27T19:57:06.812Z,1.85
2023-03-27T20:00:15.985Z,1.50
2023-03-27T20:03:25.056Z,1.38
2023-03-27T20:06:38.046Z,1.58
2023-03-27T20:09:46.841Z,1.50
2023-03-27T20:12:58.795Z,2.17
2023-03-27T20:16:07.867Z,1.30
2023-03-27T20:19:16.765Z,1.52
2023-03-27T20:22:26.883Z,1.30
2023-03-27T20:25:35.382Z,1.55
2023-03-27T20:28:43.340Z,1.40
2023-03-27T20:31:51.374Z,1.70
2023-03-27T20:35:03.409Z,1.33
2023-03-27T20:38:16.691Z,1.70
2023-03-27T20:41:27.180Z,1.40
2023-03-27T20:44:35.996Z,1.63
2023-03-27T20:47:47.238Z,1.55
2023-03-27T20:53:31.665Z,1.67
2023-03-27T20:56:21.906Z,1.35
2023-03-27T20:59:10.034Z,1.35
2023-03-27T21:01:59.124Z,1.40
2023-03-27T21:04:48.424Z,1.60
2023-03-27T21:07:38.089Z,1.50
2023-03-27T21:10:27.288Z,1.42
2023-03-27T21:13:17.449Z,1.30
2023-03-27T21:16:05.312Z,1.90
2023-03-27T21:18:53.365Z,1.20
2023-03-27T21:21:41.289Z,1.45
2023-03-27T21:24:29.342Z,1.50
2023-03-27T21:27:18.091Z,1.58
2023-03-27T21:30:06.751Z,2.70
2023-03-27T21:32:54.678Z,2.05
2023-03-27T21:35:45.511Z,1.77
2023-03-27T21:38:33.367Z,1.48
2023-03-27T21:41:21.374Z,1.55
2023-03-27T21:44:10.609Z,1.48
2023-03-27T21:46:59.101Z,1.55
2023-03-27T21:49:46.658Z,1.40
2023-03-27T21:52:34.741Z,1.45
2023-03-27T21:55:22.358Z,1.33
2023-03-27T21:58:10.423Z,1.70
2023-03-27T22:01:20.110Z,1.35
2023-03-27T22:04:28.361Z,1.30
2023-03-27T22:07:36.154Z,1.60
2023-03-27T22:10:44.207Z,1.35
2023-03-27T22:13:52.018Z,1.40
2023-03-27T22:17:01.455Z,1.65
2023-03-27T22:20:10.060Z,1.30
2023-03-27T22:23:18.063Z,1.33
2023-03-27T22:26:27.675Z,1.20
2023-03-27T22:29:35.896Z,1.20
2023-03-27T22:32:45.029Z,1.45
2023-03-27T22:35:52.903Z,1.30
2023-03-27T22:39:00.811Z,1.30
2023-03-27T22:42:08.898Z,1.50
2023-03-27T22:45:16.823Z,1.25
2023-03-27T22:48:26.267Z,1.42
2023-03-27T22:51:34.536Z,2.90
2023-03-27T22:54:42.936Z,1.05
2023-03-27T22:57:50.851Z,1.45
2023-03-27T23:00:59.076Z,1.35
2023-03-27T23:04:08.783Z,1.17
2023-03-27T23:07:16.732Z,1.02
2023-03-27T23:10:25.058Z,1.27
2023-03-27T23:13:34.038Z,1.35
2023-03-27T23:16:42.002Z,1.30
2023-03-27T23:19:51.227Z,0.80
2023-03-27T23:22:58.979Z,1.17
2023-03-27T23:26:07.843Z,1.08
2023-03-27T23:29:15.844Z,1.38
2023-03-27T23:32:24.005Z,1.27
2023-03-27T23:35:33.641Z,1.25
2023-03-27T23:38:42.386Z,1.10
2023-03-27T23:41:50.437Z,1.20
2023-03-27T23:44:58.396Z,1.30
2023-03-27T23:48:06.819Z,1.30
2023-03-27T23:51:16.963Z,1.20
2023-03-27T23:54:25.388Z,1.30
2023-03-27T23:57:33.276Z,1.13
